createdAt,value
2019-05-02T00:01:28.664Z,6.63
2019-05-02T00:03:59.080Z,5.93
2019-05-02T00:06:30.386Z,5.93
2019-05-02T00:09:03.997Z,5.90
2019-05-02T00:11:33.146Z,6.30
2019-05-02T00:14:07.084Z,6.10
2019-05-02T00:16:37.662Z,5.60
2019-05-02T00:19:09.196Z,6.63
2019-05-02T00:21:42.953Z,6.03
2019-05-02T00:24:14.557Z,5.53
2019-05-02T00:26:45.053Z,5.87
2019-05-02T00:29:19.039Z,6.70
2019-05-02T00:31:48.854Z,5.77
2019-05-02T00:34:19.506Z,5.77
2019-05-02T00:36:50.237Z,6.00
2019-05-02T00:39:20.927Z,5.90
2019-05-02T00:41:51.434Z,5.70
2019-05-02T00:44:23.771Z,5.90
2019-05-02T00:46:55.867Z,5.73
2019-05-02T00:49:26.400Z,5.67
2019-05-02T00:52:01.465Z,4.90
2019-05-02T00:54:29.108Z,5.70
2019-05-02T00:56:59.622Z,5.23
2019-05-02T00:59:30.088Z,6.10
2019-05-02T01:02:05.492Z,6.37
2019-05-02T01:04:37.591Z,6.20
2019-05-02T01:07:08.621Z,5.67
2019-05-02T01:09:42.201Z,6.13
2019-05-02T01:12:11.428Z,6.63
2019-05-02T01:14:41.892Z,5.63
2019-05-02T01:17:12.463Z,5.73
2019-05-02T01:19:47.285Z,5.17
2019-05-02T01:22:16.368Z,5.23
2019-05-02T01:24:47.608Z,5.20
2019-05-02T01:27:28.717Z,6.93
2019-05-02T01:30:07.421Z,6.33
2019-05-02T01:32:45.339Z,5.50
2019-05-02T01:35:20.259Z,6.00
2019-05-02T01:38:08.381Z,5.40
2019-05-02T01:40:38.902Z,5.70
2019-05-02T01:43:27.445Z,6.13
2019-05-02T01:45:58.060Z,5.33
2019-05-02T01:48:28.584Z,5.37
2019-05-02T01:50:59.031Z,6.07
2019-05-02T01:53:34.193Z,5.03
2019-05-02T01:56:01.677Z,5.60
2019-05-02T01:58:32.148Z,5.47
2019-05-02T02:01:02.692Z,5.60
2019-05-02T02:03:33.161Z,5.53
2019-05-02T02:06:07.922Z,5.97
2019-05-02T02:08:36.171Z,5.90
2019-05-02T02:11:06.793Z,5.90
2019-05-02T02:13:38.050Z,6.60
2019-05-02T02:16:09.029Z,5.57
2019-05-02T02:18:41.188Z,5.67
2019-05-02T02:21:25.551Z,6.63
2019-05-02T02:24:10.685Z,6.47
2019-05-02T02:26:43.616Z,5.37
2019-05-02T02:29:13.332Z,7.80
2019-05-02T02:31:46.880Z,5.43
2019-05-02T02:34:21.520Z,8.00
2019-05-02T02:36:48.237Z,5.33
2019-05-02T02:39:18.776Z,5.73
2019-05-02T02:41:52.140Z,6.20
2019-05-02T02:44:23.090Z,6.50
2019-05-02T02:46:54.711Z,7.27
2019-05-02T02:49:25.148Z,7.90
2019-05-02T02:52:02.022Z,6.53
2019-05-02T02:54:36.402Z,7.87
2019-05-02T02:57:02.674Z,6.30
2019-05-02T02:59:33.159Z,6.07
2019-05-02T03:02:09.908Z,7.07
2019-05-02T03:04:35.984Z,7.57
2019-05-02T03:07:06.747Z,6.77
2019-05-02T03:09:37.212Z,8.17
2019-05-02T03:12:12.298Z,7.97
2019-05-02T03:14:47.114Z,8.07
2019-05-02T03:17:20.382Z,7.13
2019-05-02T03:19:54.370Z,7.40
2019-05-02T03:22:21.333Z,6.70
2019-05-02T03:24:52.107Z,7.83
2019-05-02T03:27:22.702Z,7.37
2019-05-02T03:29:53.195Z,7.23
2019-05-02T03:32:32.737Z,6.60
2019-05-02T03:34:57.472Z,7.27
2019-05-02T03:37:28.608Z,7.20
2019-05-02T03:40:01.203Z,7.20
2019-05-02T03:43:25.395Z,8.20
2019-05-02T03:45:52.476Z,7.40
2019-05-02T03:51:19.813Z,8.10
2019-05-02T03:53:43.423Z,7.80
2019-05-02T03:56:16.697Z,7.00
2019-05-02T03:58:48.763Z,7.23
2019-05-02T04:01:20.175Z,6.67
2019-05-02T04:03:51.975Z,6.37
2019-05-02T04:06:23.740Z,7.07
2019-05-02T04:09:00.105Z,6.73
2019-05-02T04:11:38.020Z,7.37
2019-05-02T04:14:01.911Z,6.50
2019-05-02T04:16:34.201Z,6.80
2019-05-02T04:19:05.019Z,7.10
2019-05-02T04:21:36.080Z,6.50
2019-05-02T04:24:13.254Z,7.33
2019-05-02T04:26:52.709Z,7.00
2019-05-02T04:29:12.374Z,7.07
2019-05-02T04:31:42.819Z,6.70
2019-05-02T04:34:17.600Z,6.93
2019-05-02T04:36:53.454Z,6.70
2019-05-02T04:39:21.766Z,7.53
2019-05-02T04:41:52.476Z,7.00
2019-05-02T04:44:29.834Z,7.47
2019-05-02T04:46:59.858Z,6.50
2019-05-02T04:49:33.034Z,7.73
2019-05-02T04:52:06.848Z,7.87
2019-05-02T04:54:33.819Z,6.10
2019-05-02T04:57:18.440Z,7.93
2019-05-02T05:00:02.498Z,7.67
2019-05-02T05:02:34.249Z,7.03
2019-05-02T05:04:59.023Z,6.07
2019-05-02T05:10:12.412Z,7.50
2019-05-02T05:12:47.894Z,7.50
2019-05-02T05:15:33.772Z,7.63
2019-05-02T05:17:58.210Z,7.47
2019-05-02T05:20:28.715Z,7.27
2019-05-02T05:22:59.469Z,6.33
2019-05-02T05:25:34.253Z,7.33
2019-05-02T05:28:06.027Z,6.90
2019-05-02T05:30:39.601Z,7.23
2019-05-02T05:33:10.311Z,7.30
2019-05-02T05:35:43.384Z,7.63
2019-05-02T05:38:12.986Z,7.20
2019-05-02T05:40:43.462Z,7.30
2019-05-02T05:43:15.886Z,7.37
2019-05-02T05:45:56.176Z,7.13
2019-05-02T05:48:20.866Z,7.53
2019-05-02T05:50:51.290Z,7.30
2019-05-02T05:53:24.463Z,8.13
2019-05-02T05:56:00.989Z,7.23
2019-05-02T05:58:28.289Z,7.30
2019-05-02T06:00:58.777Z,7.47
2019-05-02T06:03:29.415Z,6.87
2019-05-02T06:06:00.100Z,7.77
2019-05-02T06:08:31.117Z,7.50
2019-05-02T06:11:07.875Z,8.87
2019-05-02T06:13:43.036Z,7.10
2019-05-02T06:16:15.094Z,7.43
2019-05-02T06:18:44.006Z,7.70
2019-05-02T06:21:17.148Z,8.00
2019-05-02T06:23:47.667Z,8.27
2019-05-02T06:26:18.095Z,8.20
2019-05-02T06:28:48.756Z,8.00
2019-05-02T06:31:19.428Z,7.77
2019-05-02T06:33:49.908Z,8.73
2019-05-02T06:36:20.477Z,8.20
2019-05-02T06:38:52.105Z,8.50
2019-05-02T06:41:23.031Z,8.90
2019-05-02T06:43:53.514Z,9.73
2019-05-02T06:46:27.801Z,9.43
2019-05-02T06:48:56.723Z,9.67
2019-05-02T06:51:27.144Z,9.63
2019-05-02T06:53:58.184Z,10.48
2019-05-02T06:56:28.623Z,9.80
2019-05-02T06:58:59.239Z,9.50
2019-05-02T07:01:29.733Z,10.20
2019-05-02T07:04:00.188Z,9.10
2019-05-02T07:06:42.402Z,9.37
2019-05-02T07:09:04.142Z,8.70
2019-05-02T07:11:38.889Z,8.85
2019-05-02T07:14:13.449Z,10.35
2019-05-02T07:16:44.260Z,8.95
2019-05-02T07:19:34.378Z,9.00
2019-05-02T07:22:05.521Z,8.98
2019-05-02T07:24:36.001Z,8.85
2019-05-02T07:27:06.499Z,8.88
2019-05-02T07:29:36.975Z,9.03
2019-05-02T07:32:07.585Z,9.08
2019-05-02T07:34:38.070Z,8.45
2019-05-02T07:37:12.462Z,8.68
2019-05-02T07:39:42.283Z,8.50
2019-05-02T07:42:12.779Z,9.13
2019-05-02T07:44:43.242Z,8.57
2019-05-02T07:47:14.233Z,8.75
2019-05-02T07:49:44.928Z,9.00
2019-05-02T07:52:15.377Z,9.07
2019-05-02T07:54:45.802Z,8.17
2019-05-02T07:57:16.809Z,8.03
2019-05-02T07:59:49.803Z,8.28
2019-05-02T08:02:24.933Z,8.10
2019-05-02T08:04:52.928Z,8.18
2019-05-02T08:07:26.023Z,7.90
2019-05-02T08:09:56.061Z,7.72
2019-05-02T08:12:27.061Z,7.65
2019-05-02T08:15:00.366Z,6.78
2019-05-02T08:17:30.331Z,7.35
2019-05-02T08:20:00.760Z,7.75
2019-05-02T08:22:31.176Z,7.30
2019-05-02T08:25:01.598Z,6.43
2019-05-02T08:27:34.750Z,7.30
2019-05-02T08:30:11.111Z,6.73
2019-05-02T08:32:41.534Z,7.47
2019-05-02T08:35:12.087Z,7.27
2019-05-02T08:37:43.085Z,6.93
2019-05-02T08:40:13.706Z,6.13
2019-05-02T08:42:44.204Z,7.40
2019-05-02T08:45:15.243Z,6.17
2019-05-02T08:47:45.655Z,6.00
2019-05-02T08:50:16.871Z,6.58
2019-05-02T08:52:48.264Z,6.28
2019-05-02T08:55:18.666Z,6.67
2019-05-02T08:57:49.083Z,7.20
2019-05-02T09:00:20.578Z,7.03
2019-05-02T09:02:51.002Z,6.87
2019-05-02T09:05:21.450Z,7.05
2019-05-02T09:07:51.880Z,5.75
2019-05-02T09:10:22.894Z,6.95
2019-05-02T09:12:53.414Z,7.12
2019-05-02T09:15:24.137Z,6.03
2019-05-02T09:17:56.396Z,5.62
2019-05-02T09:20:27.267Z,6.17
2019-05-02T09:22:57.727Z,6.75
2019-05-02T09:25:28.361Z,7.45
2019-05-02T09:27:59.335Z,5.72
2019-05-02T09:30:30.359Z,6.00
2019-05-02T09:33:02.860Z,6.28
2019-05-02T09:35:33.484Z,6.20
2019-05-02T09:38:03.921Z,5.90
2019-05-02T09:40:34.930Z,7.05
2019-05-02T09:43:05.505Z,6.92
2019-05-02T09:45:37.509Z,6.70
2019-05-02T09:48:08.410Z,7.28
2019-05-02T09:50:39.351Z,7.20
2019-05-02T09:53:14.878Z,6.25
2019-05-02T09:55:49.500Z,7.15
2019-05-02T09:58:19.633Z,6.95
2019-05-02T10:00:53.739Z,6.78
2019-05-02T10:03:24.966Z,6.40
2019-05-02T10:05:56.097Z,6.60
2019-05-02T10:08:27.125Z,6.62
2019-05-02T10:10:58.586Z,7.55
2019-05-02T10:13:31.767Z,7.17
2019-05-02T10:16:02.451Z,7.62
2019-05-02T10:18:33.529Z,6.78
2019-05-02T10:21:07.724Z,8.18
2019-05-02T10:23:37.609Z,6.95
2019-05-02T10:26:12.967Z,6.30
2019-05-02T10:28:49.101Z,8.03
2019-05-02T10:31:14.080Z,6.35
2019-05-02T10:33:45.075Z,7.42
2019-05-02T10:36:19.643Z,7.37
2019-05-02T10:38:54.972Z,7.35
2019-05-02T10:41:22.499Z,6.58
2019-05-02T10:43:56.635Z,6.60
2019-05-02T10:46:32.576Z,7.00
2019-05-02T10:49:07.706Z,7.22
2019-05-02T10:51:41.862Z,7.35
2019-05-02T10:54:12.019Z,7.10
2019-05-02T10:56:43.100Z,7.45
2019-05-02T10:59:14.110Z,7.80
2019-05-02T11:01:58.611Z,7.12
2019-05-02T11:04:32.346Z,6.70
2019-05-02T11:07:03.373Z,7.55
2019-05-02T11:09:34.655Z,7.70
2019-05-02T11:12:07.462Z,7.45
2019-05-02T11:14:42.078Z,7.78
2019-05-02T11:17:26.095Z,7.55
2019-05-02T11:19:58.735Z,7.33
2019-05-02T11:22:29.867Z,7.65
2019-05-02T11:25:01.728Z,8.90
2019-05-02T11:27:33.028Z,8.18
2019-05-02T11:30:07.329Z,6.90
2019-05-02T11:32:38.439Z,7.72
2019-05-02T11:35:09.577Z,6.83
2019-05-02T11:37:42.252Z,8.15
2019-05-02T11:40:13.604Z,6.95
2019-05-02T11:42:44.611Z,7.22
2019-05-02T11:45:15.978Z,8.05
2019-05-02T11:47:47.261Z,7.35
2019-05-02T11:50:18.341Z,8.13
2019-05-02T11:52:49.327Z,7.03
2019-05-02T11:55:24.703Z,7.45
2019-05-02T11:57:53.317Z,8.05
2019-05-02T12:00:23.998Z,8.10
2019-05-02T12:03:12.664Z,8.20
2019-05-02T12:05:44.119Z,8.23
2019-05-02T12:08:14.685Z,7.87
2019-05-02T12:10:45.357Z,7.97
2019-05-02T12:13:16.311Z,9.03
2019-05-02T12:15:47.020Z,7.90
2019-05-02T12:18:20.495Z,7.70
2019-05-02T12:20:52.007Z,6.90
2019-05-02T12:23:23.233Z,7.55
2019-05-02T12:25:54.428Z,7.97
2019-05-02T12:28:25.498Z,8.48
2019-05-02T12:30:56.513Z,7.58
2019-05-02T12:33:29.444Z,8.25
2019-05-02T12:35:59.972Z,8.65
2019-05-02T12:38:32.370Z,9.83
2019-05-02T12:41:04.312Z,8.75
2019-05-02T12:43:35.028Z,8.10
2019-05-02T12:46:06.055Z,8.40
2019-05-02T12:48:36.486Z,8.10
2019-05-02T12:51:07.005Z,8.43
2019-05-02T12:53:38.328Z,8.48
2019-05-02T12:56:09.397Z,7.30
2019-05-02T12:58:42.011Z,8.30
2019-05-02T13:01:12.326Z,9.33
2019-05-02T13:03:46.001Z,8.25
2019-05-02T13:06:16.575Z,8.65
2019-05-02T13:08:52.388Z,9.78
2019-05-02T13:11:36.964Z,9.23
2019-05-02T13:14:16.938Z,9.00
2019-05-02T13:16:43.034Z,8.70
2019-05-02T13:19:13.550Z,8.35
2019-05-02T13:22:03.685Z,8.50
2019-05-02T13:24:42.405Z,8.28
2019-05-02T13:27:15.656Z,9.45
2019-05-02T13:29:46.899Z,8.75
2019-05-02T13:32:35.415Z,8.05
2019-05-02T13:35:13.869Z,9.50
2019-05-02T13:37:46.967Z,9.50
2019-05-02T13:40:22.683Z,9.60
2019-05-02T13:42:53.667Z,8.85
2019-05-02T13:45:37.474Z,10.65
2019-05-02T13:48:08.228Z,9.85
2019-05-02T13:50:39.322Z,11.45
2019-05-02T13:53:12.011Z,12.35
2019-05-02T13:55:46.485Z,11.88
2019-05-02T13:58:21.516Z,12.33
2019-05-02T14:00:50.449Z,13.22
2019-05-02T14:03:22.654Z,11.78
2019-05-02T14:05:53.912Z,11.65
2019-05-02T14:08:27.387Z,11.57
2019-05-02T14:11:02.285Z,11.60
2019-05-02T14:13:32.992Z,10.75
2019-05-02T14:16:03.502Z,10.50
2019-05-02T14:18:33.959Z,9.70
2019-05-02T14:21:05.209Z,10.88
2019-05-02T14:23:36.219Z,10.65
2019-05-02T14:26:06.880Z,12.05
2019-05-02T14:28:37.316Z,13.83
2019-05-02T14:31:08.083Z,12.85
2019-05-02T14:33:42.217Z,13.65
2019-05-02T14:36:13.175Z,12.82
2019-05-02T14:38:43.936Z,13.80
2019-05-02T14:41:16.123Z,11.87
2019-05-02T14:43:52.575Z,9.83
2019-05-02T14:46:28.801Z,7.97
2019-05-02T14:48:57.309Z,7.10
2019-05-02T14:51:28.227Z,6.20
2019-05-02T14:54:03.717Z,6.57
2019-05-02T14:56:46.295Z,5.33
2019-05-02T14:59:19.418Z,5.10
2019-05-02T15:01:47.889Z,5.37
2019-05-02T15:04:18.567Z,4.20
2019-05-02T15:06:49.033Z,3.80
2019-05-02T15:09:24.314Z,3.93
2019-05-02T15:12:02.902Z,3.43
2019-05-02T15:14:37.696Z,2.73
2019-05-02T15:17:09.074Z,1.83
2019-05-02T15:26:02.624Z,2.13
2019-05-02T15:28:37.446Z,3.20
2019-05-02T15:31:11.837Z,3.17
2019-05-02T15:33:44.430Z,4.27
2019-05-02T15:36:14.967Z,5.07
2019-05-02T15:38:47.431Z,5.47
2019-05-02T15:41:18.073Z,6.20
2019-05-02T15:43:49.337Z,6.27
2019-05-02T15:46:26.552Z,6.63
2019-05-02T15:48:57.161Z,6.97
2019-05-02T15:51:28.323Z,6.90
2019-05-02T15:59:46.411Z,6.37
2019-05-02T16:02:22.886Z,6.80
2019-05-02T16:04:57.152Z,7.17
2019-05-02T16:07:25.596Z,6.87
2019-05-02T16:10:00.083Z,7.93
2019-05-02T16:12:32.078Z,8.20
2019-05-02T16:15:02.428Z,7.33
2019-05-02T16:17:36.100Z,8.37
2019-05-02T16:20:13.405Z,8.53
2019-05-02T16:22:52.722Z,8.17
2019-05-02T16:25:24.393Z,9.23
2019-05-02T16:27:57.490Z,8.23
2019-05-02T16:30:31.831Z,7.93
2019-05-02T16:33:08.009Z,8.43
2019-05-02T16:35:36.415Z,8.30
2019-05-02T16:38:07.316Z,9.10
2019-05-02T16:40:38.327Z,7.50
2019-05-02T16:43:09.054Z,8.40
2019-05-02T16:45:41.680Z,8.80
2019-05-02T16:48:12.167Z,8.77
2019-05-02T16:50:44.977Z,8.00
2019-05-02T16:53:17.219Z,7.93
2019-05-02T16:55:48.300Z,8.07
2019-05-02T16:58:18.772Z,8.20
2019-05-02T17:00:49.307Z,7.30
2019-05-02T17:03:22.667Z,8.70
2019-05-02T17:05:54.419Z,9.33
2019-05-02T17:08:26.156Z,8.73
2019-05-02T17:10:58.668Z,9.30
2019-05-02T17:13:32.783Z,9.53
2019-05-02T17:16:06.886Z,9.00
2019-05-02T17:18:33.973Z,9.80
2019-05-02T17:21:04.993Z,8.87
2019-05-02T17:23:37.454Z,10.37
2019-05-02T17:26:08.617Z,9.40
2019-05-02T17:28:43.381Z,10.30
2019-05-02T17:31:19.570Z,9.40
2019-05-02T17:33:46.207Z,9.37
2019-05-02T17:36:16.585Z,9.53
2019-05-02T17:38:47.592Z,10.00
2019-05-02T17:41:18.611Z,8.93
2019-05-02T17:43:49.565Z,9.83
2019-05-02T17:46:23.797Z,9.97
2019-05-02T17:48:53.991Z,10.93
2019-05-02T17:51:37.847Z,11.30
2019-05-02T17:54:11.917Z,11.17
2019-05-02T17:56:42.937Z,11.30
2019-05-02T17:59:16.883Z,10.97
2019-05-02T18:01:48.275Z,11.40
2019-05-02T18:04:21.465Z,11.13
2019-05-02T18:06:55.224Z,11.87
2019-05-02T18:09:31.710Z,11.77
2019-05-02T18:12:06.900Z,12.67
2019-05-02T18:14:36.106Z,13.83
2019-05-02T18:17:07.824Z,14.13
2019-05-02T18:19:42.579Z,14.93
2019-05-02T18:22:24.119Z,14.87
2019-05-02T18:24:53.608Z,14.47
2019-05-02T18:27:24.957Z,17.27
2019-05-02T18:29:56.304Z,16.60
2019-05-02T18:32:27.334Z,17.97
2019-05-02T18:35:04.294Z,17.60
2019-05-02T18:37:32.569Z,18.77
2019-05-02T18:40:11.910Z,18.07
2019-05-02T18:42:44.573Z,19.53
2019-05-02T18:45:28.399Z,19.63
2019-05-02T18:48:02.450Z,20.97
2019-05-02T18:50:46.869Z,22.57
2019-05-02T18:53:24.098Z,23.50
2019-05-02T18:55:56.845Z,22.57
2019-05-02T18:58:26.760Z,24.47
2019-05-02T19:00:58.152Z,24.00
2019-05-02T19:03:30.025Z,20.60
2019-05-02T19:06:05.105Z,20.00
2019-05-02T19:08:46.578Z,24.63
2019-05-02T19:11:15.113Z,24.03
2019-05-02T19:13:48.596Z,22.93
2019-05-02T19:16:25.076Z,24.47
2019-05-02T19:18:57.598Z,25.57
2019-05-02T19:21:32.089Z,22.93
2019-05-02T19:24:02.497Z,24.57
2019-05-02T19:26:35.519Z,23.50
2019-05-02T19:29:17.461Z,21.07
2019-05-02T19:31:52.512Z,24.00
2019-05-02T19:34:26.886Z,25.67
2019-05-02T19:36:57.962Z,23.80
2019-05-02T19:39:33.960Z,25.87
2019-05-02T19:42:06.665Z,24.37
2019-05-02T19:44:50.187Z,24.57
2019-05-02T19:47:25.863Z,25.60
2019-05-02T19:49:57.120Z,26.73
2019-05-02T19:52:37.190Z,24.10
2019-05-02T19:55:03.289Z,25.37
2019-05-02T19:57:35.722Z,26.10
2019-05-02T20:00:08.233Z,25.90
2019-05-02T20:02:42.308Z,25.27
2019-05-02T20:05:24.038Z,26.00
2019-05-02T20:13:28.133Z,28.07
2019-05-02T20:16:02.532Z,28.00
2019-05-02T20:18:34.999Z,28.40
2019-05-02T20:21:25.950Z,26.47
2019-05-02T20:23:52.590Z,26.43
2019-05-02T20:26:23.625Z,30.80
2019-05-02T20:28:54.876Z,28.87
2019-05-02T20:31:25.710Z,29.20
2019-05-02T20:33:59.467Z,26.50
2019-05-02T20:36:33.266Z,30.67
2019-05-02T20:39:03.513Z,31.70
2019-05-02T20:41:34.257Z,31.50
2019-05-02T20:44:05.135Z,30.93
2019-05-02T20:46:36.403Z,31.93
2019-05-02T20:49:09.780Z,31.50
2019-05-02T20:51:42.398Z,30.73
2019-05-02T20:54:13.353Z,30.90
2019-05-02T20:56:44.015Z,31.23
2019-05-02T20:59:14.753Z,29.77
2019-05-02T21:01:45.548Z,31.90
2019-05-02T21:04:16.350Z,31.40
2019-05-02T21:06:54.555Z,31.17
2019-05-02T21:09:32.299Z,30.00
2019-05-02T21:12:05.120Z,31.83
2019-05-02T21:14:36.139Z,30.27
2019-05-02T21:17:08.909Z,30.67
2019-05-02T21:19:41.681Z,29.70
2019-05-02T21:22:22.098Z,30.70
2019-05-02T21:24:53.337Z,31.40
2019-05-02T21:27:24.420Z,32.37
2019-05-02T21:29:57.928Z,31.07
2019-05-02T21:32:32.156Z,33.90
2019-05-02T21:35:03.429Z,31.67
2019-05-02T21:37:34.372Z,30.23
2019-05-02T21:40:07.966Z,31.90
2019-05-02T21:42:42.365Z,30.93
2019-05-02T21:45:15.745Z,30.17
2019-05-02T21:47:52.783Z,32.60
2019-05-02T21:50:33.482Z,30.03
2019-05-02T21:53:22.599Z,30.63
2019-05-02T21:56:02.831Z,31.10
2019-05-02T21:58:34.635Z,31.03
2019-05-02T22:01:12.923Z,29.50
2019-05-02T22:03:45.627Z,33.50
2019-05-02T22:06:17.043Z,30.00
2019-05-02T22:08:47.688Z,28.17
2019-05-02T22:11:18.486Z,28.97
2019-05-02T22:13:51.682Z,29.90
2019-05-02T22:16:24.851Z,30.43
2019-05-02T22:18:55.812Z,26.87
2019-05-02T22:21:27.187Z,28.23
2019-05-02T22:24:10.367Z,27.10
2019-05-02T22:26:32.862Z,28.30
2019-05-02T22:29:03.605Z,27.30
2019-05-02T22:31:34.212Z,22.47
2019-05-02T22:34:05.434Z,24.23
2019-05-02T22:36:36.184Z,24.47
2019-05-02T22:39:28.067Z,24.90
2019-05-02T22:41:59.210Z,22.87
2019-05-02T22:44:32.340Z,23.83
2019-05-02T22:47:02.555Z,23.53
2019-05-02T22:49:33.282Z,24.50
2019-05-02T22:52:04.449Z,24.47
2019-05-02T22:54:35.085Z,25.67
2019-05-02T22:57:06.521Z,23.63
2019-05-02T22:59:37.239Z,23.83
2019-05-02T23:02:08.769Z,26.70
2019-05-02T23:04:39.408Z,25.73
2019-05-02T23:07:10.339Z,26.83
2019-05-02T23:09:43.447Z,27.57
2019-05-02T23:12:13.309Z,29.07
2019-05-02T23:14:44.122Z,29.33
2019-05-02T23:17:15.101Z,28.33
2019-05-02T23:19:45.736Z,31.03
2019-05-02T23:22:16.659Z,29.10
2019-05-02T23:25:06.991Z,29.87
2019-05-02T23:27:48.516Z,30.97
2019-05-02T23:30:22.715Z,31.10
2019-05-02T23:32:53.402Z,31.50
2019-05-02T23:35:24.308Z,32.70
2019-05-02T23:37:54.845Z,32.00
2019-05-02T23:40:25.719Z,31.13
2019-05-02T23:42:56.518Z,31.27
2019-05-02T23:45:27.320Z,31.53
2019-05-02T23:47:58.019Z,29.50
2019-05-02T23:50:43.049Z,30.73
2019-05-02T23:53:13.385Z,28.20
2019-05-02T23:55:43.828Z,29.30
2019-05-02T23:58:14.310Z,27.60
